Time,TemperatureF,DewpointF,PressureIn,WindDirection,WindDirectionDegrees,WindSpeedMPH,WindSpeedGustMPH,Humidity,HourlyPrecipIn,Conditions,Clouds,dailyrainin,SolarRadiationWatts/m^2,SoftwareType,DateUTC
2013-08-31 00:00:00,74.5,72.0,29.48,ENE,69,0.0,-999.0,92,-99.99,,,0.00,0,weatherlink.com 1.10,2013-08-31 04:00:00,
2013-08-31 00:15:00,74.0,72.0,29.48,ENE,78,6.0,-999.0,93,-99.99,,,0.00,0,weatherlink.com 1.10,2013-08-31 04:15:00,
2013-08-31 00:30:00,73.5,72.0,29.49,ENE,78,4.0,-999.0,95,-99.99,,,0.00,0,weatherlink.com 1.10,2013-08-31 04:30:00,
2013-08-31 00:45:00,73.3,72.0,29.49,ENE,71,7.0,-999.0,95,-99.99,,,0.00,0,weatherlink.com 1.10,2013-08-31 04:45:00,
2013-08-31 01:00:00,73.1,72.0,29.50,ENE,74,3.0,-999.0,96,-99.99,,,0.00,0,weatherlink.com 1.10,2013-08-31 05:00:00,
2013-08-31 01:15:00,73.0,72.0,29.50,East,83,4.0,-999.0,96,-99.99,,,0.00,0,weatherlink.com 1.10,2013-08-31 05:15:00,
2013-08-31 01:45:00,72.8,72.0,29.50,NE,52,0.0,-999.0,96,-99.99,,,0.00,0,weatherlink.com 1.10,2013-08-31 05:45:00,
2013-08-31 02:00:00,72.8,72.0,29.50,ENE,71,0.0,-999.0,96,-99.99,,,0.00,0,weatherlink.com 1.10,2013-08-31 06:00:00,
2013-08-31 02:15:00,72.6,71.0,29.50,ENE,65,0.0,-999.0,96,-99.99,,,0.00,0,weatherlink.com 1.10,2013-08-31 06:15:00,
2013-08-31 02:30:00,72.5,71.0,29.49,ENE,64,0.0,-999.0,95,-99.99,,,0.00,0,weatherlink.com 1.10,2013-08-31 06:30:00,
2013-08-31 02:46:00,71.6,70.0,29.50,North,360,2.0,-999.0,95,-99.99,,,0.00,0,weatherlink.com 1.10,2013-08-31 06:46:00,
2013-08-31 03:01:00,70.9,70.0,29.50,North,5,0.0,-999.0,95,-99.99,,,0.00,0,weatherlink.com 1.10,2013-08-31 07:01:00,
2013-08-31 03:16:00,70.6,69.0,29.50,North,355,0.0,-999.0,95,-99.99,,,0.00,0,weatherlink.com 1.10,2013-08-31 07:16:00,
2013-08-31 03:31:00,70.3,69.0,29.51,North,355,0.0,-999.0,96,-99.99,,,0.00,0,weatherlink.com 1.10,2013-08-31 07:31:00,
2013-08-31 03:46:00,70.2,69.0,29.51,North,355,0.0,-999.0,96,-99.99,,,0.00,0,weatherlink.com 1.10,2013-08-31 07:46:00,
2013-08-31 04:01:00,70.0,69.0,29.51,North,360,0.0,-999.0,96,-99.99,,,0.00,0,weatherlink.com 1.10,2013-08-31 08:01:00,
2013-08-31 04:16:00,69.8,69.0,29.51,North,5,0.0,-999.0,96,-99.99,,,0.00,0,weatherlink.com 1.10,2013-08-31 08:16:00,
2013-08-31 04:31:00,69.7,69.0,29.50,North,5,0.0,-999.0,96,-99.99,,,0.00,0,weatherlink.com 1.10,2013-08-31 08:31:00,
2013-08-31 04:46:00,69.6,69.0,29.51,East,87,0.0,-999.0,96,-99.99,,,0.00,0,weatherlink.com 1.10,2013-08-31 08:46:00,
2013-08-31 05:01:00,69.5,68.0,29.51,East,87,0.0,-999.0,96,-99.99,,,0.00,0,weatherlink.com 1.10,2013-08-31 09:01:00,
2013-08-31 05:16:00,69.4,68.0,29.51,East,87,0.0,-999.0,96,-99.99,,,0.00,0,weatherlink.com 1.10,2013-08-31 09:16:00,
2013-08-31 05:31:00,69.0,68.0,29.51,East,87,0.0,-999.0,96,-99.99,,,0.00,0,weatherlink.com 1.10,2013-08-31 09:31:00,
2013-08-31 05:46:00,68.7,68.0,29.51,East,87,0.0,-999.0,96,-99.99,,,0.00,0,weatherlink.com 1.10,2013-08-31 09:46:00,
2013-08-31 06:01:00,68.7,68.0,29.51,ENE,60,0.0,-999.0,96,-99.99,,,0.00,0,weatherlink.com 1.10,2013-08-31 10:01:00,
2013-08-31 06:16:00,68.6,68.0,29.51,East,82,0.0,-999.0,96,-99.99,,,0.00,0,weatherlink.com 1.10,2013-08-31 10:16:00,
2013-08-31 06:31:00,68.3,67.0,29.51,East,80,0.0,-999.0,96,-99.99,,,0.00,0,weatherlink.com 1.10,2013-08-31 10:31:00,
2013-08-31 06:46:00,68.2,67.0,29.51,East,81,0.0,-999.0,96,-99.99,,,0.00,0,weatherlink.com 1.10,2013-08-31 10:46:00,
2013-08-31 07:01:00,68.0,67.0,29.51,East,93,0.0,-999.0,96,-99.99,,,0.00,0,weatherlink.com 1.10,2013-08-31 11:01:00,
2013-08-31 07:16:00,67.9,67.0,29.52,East,88,0.0,-999.0,96,-99.99,,,0.00,0,weatherlink.com 1.10,2013-08-31 11:16:00,
2013-08-31 07:31:00,67.8,67.0,29.52,East,88,0.0,-999.0,97,-99.99,,,0.00,7,weatherlink.com 1.10,2013-08-31 11:31:00,
2013-08-31 07:46:00,67.6,67.0,29.53,East,88,0.0,-999.0,97,-99.99,,,0.00,11,weatherlink.com 1.10,2013-08-31 11:46:00,
2013-08-31 08:01:00,67.6,67.0,29.53,East,88,3.0,-999.0,97,-99.99,,,0.00,18,weatherlink.com 1.10,2013-08-31 12:01:00,
2013-08-31 08:16:00,67.5,67.0,29.54,ENE,78,0.0,-999.0,97,-99.99,,,0.00,58,weatherlink.com 1.10,2013-08-31 12:16:00,
2013-08-31 08:31:00,67.6,67.0,29.54,ENE,77,0.0,-999.0,97,-99.99,,,0.00,42,weatherlink.com 1.10,2013-08-31 12:31:00,
2013-08-31 08:46:00,67.6,67.0,29.54,ENE,77,0.0,-999.0,97,-99.99,,,0.00,49,weatherlink.com 1.10,2013-08-31 12:46:00,
2013-08-31 09:01:00,67.4,67.0,29.54,ENE,74,0.0,-999.0,98,-99.99,,,0.00,81,weatherlink.com 1.10,2013-08-31 13:01:00,
2013-08-31 09:16:00,67.4,67.0,29.54,ENE,77,0.0,-999.0,98,-99.99,,,0.00,93,weatherlink.com 1.10,2013-08-31 13:16:00,
2013-08-31 09:31:00,67.6,67.0,29.54,ENE,77,0.0,-999.0,98,-99.99,,,0.00,105,weatherlink.com 1.10,2013-08-31 13:31:00,
2013-08-31 09:46:00,67.9,67.0,29.54,ENE,77,0.0,-999.0,98,-99.99,,,0.00,120,weatherlink.com 1.10,2013-08-31 13:46:00,
2013-08-31 10:01:00,68.0,67.0,29.55,ESE,117,0.0,-999.0,97,-99.99,,,0.00,97,weatherlink.com 1.10,2013-08-31 14:01:00,
2013-08-31 10:16:00,68.5,68.0,29.55,SE,135,2.0,-999.0,97,-99.99,,,0.00,91,weatherlink.com 1.10,2013-08-31 14:16:00,
2013-08-31 10:31:00,68.7,67.0,29.55,ESE,115,0.0,-999.0,95,-99.99,,,0.00,195,weatherlink.com 1.10,2013-08-31 14:31:00,
2013-08-31 10:46:00,69.5,68.0,29.56,ESE,115,0.0,-999.0,94,-99.99,,,0.00,135,weatherlink.com 1.10,2013-08-31 14:46:00,
2013-08-31 11:01:00,70.1,68.0,29.55,ESE,116,0.0,-999.0,92,-99.99,,,0.00,195,weatherlink.com 1.10,2013-08-31 15:01:00,
2013-08-31 11:16:00,70.8,68.0,29.55,SE,140,0.0,-999.0,89,-99.99,,,0.00,206,weatherlink.com 1.10,2013-08-31 15:16:00,
2013-08-31 11:31:00,71.7,67.0,29.55,SSE,155,4.0,-999.0,86,-99.99,,,0.00,791,weatherlink.com 1.10,2013-08-31 15:31:00,
2013-08-31 11:46:00,72.6,67.0,29.55,SSE,159,3.0,-999.0,83,-99.99,,,0.00,264,weatherlink.com 1.10,2013-08-31 15:46:00,
2013-08-31 12:02:00,73.0,68.0,29.55,SSE,157,0.0,-999.0,83,-99.99,,,0.00,248,weatherlink.com 1.10,2013-08-31 16:02:00,
2013-08-31 12:17:00,73.1,68.0,29.54,SSE,147,0.0,-999.0,83,-99.99,,,0.00,751,weatherlink.com 1.10,2013-08-31 16:17:00,
2013-08-31 12:32:00,74.4,68.0,29.55,SW,234,0.0,-999.0,79,-99.99,,,0.00,751,weatherlink.com 1.10,2013-08-31 16:32:00,
2013-08-31 12:47:00,74.7,68.0,29.55,WSW,238,0.0,-999.0,79,-99.99,,,0.00,380,weatherlink.com 1.10,2013-08-31 16:47:00,
2013-08-31 13:02:00,75.6,68.0,29.54,SW,233,0.0,-999.0,77,-99.99,,,0.00,1007,weatherlink.com 1.10,2013-08-31 17:02:00,
2013-08-31 13:17:00,76.4,68.0,29.53,SSW,194,0.0,-999.0,76,-99.99,,,0.00,529,weatherlink.com 1.10,2013-08-31 17:17:00,
2013-08-31 13:32:00,76.1,68.0,29.54,WSW,248,0.0,-999.0,75,-99.99,,,0.00,355,weatherlink.com 1.10,2013-08-31 17:32:00,
2013-08-31 13:47:00,76.2,67.0,29.53,SW,215,0.0,-999.0,74,-99.99,,,0.00,258,weatherlink.com 1.10,2013-08-31 17:47:00,
2013-08-31 14:02:00,76.1,68.0,29.53,SSE,153,0.0,-999.0,76,-99.99,,,0.00,144,weatherlink.com 1.10,2013-08-31 18:02:00,
2013-08-31 14:17:00,76.0,68.0,29.54,SE,145,0.0,-999.0,77,-99.99,,,0.00,146,weatherlink.com 1.10,2013-08-31 18:17:00,
2013-08-31 14:32:00,76.0,68.0,29.55,SW,236,0.0,-999.0,76,-99.99,,,0.00,100,weatherlink.com 1.10,2013-08-31 18:32:00,
2013-08-31 14:47:00,76.0,68.0,29.54,WSW,246,0.0,-999.0,76,-99.99,,,0.00,139,weatherlink.com 1.10,2013-08-31 18:47:00,
2013-08-31 15:02:00,76.1,68.0,29.52,WSW,245,0.0,-999.0,77,-99.99,,,0.00,234,weatherlink.com 1.10,2013-08-31 19:02:00,
2013-08-31 15:17:00,76.4,68.0,29.51,SSE,149,0.0,-999.0,76,-99.99,,,0.00,341,weatherlink.com 1.10,2013-08-31 19:17:00,
2013-08-31 15:32:00,77.0,69.0,29.51,SE,125,0.0,-999.0,77,-99.99,,,0.00,316,weatherlink.com 1.10,2013-08-31 19:32:00,
2013-08-31 15:47:00,78.1,70.0,29.51,SE,125,0.0,-999.0,75,-99.99,,,0.00,236,weatherlink.com 1.10,2013-08-31 19:47:00,
2013-08-31 16:02:00,78.0,70.0,29.50,South,180,0.0,-999.0,75,-99.99,,,0.00,239,weatherlink.com 1.10,2013-08-31 20:02:00,
2013-08-31 16:17:00,77.6,70.0,29.50,SSW,203,0.0,-999.0,76,-99.99,,,0.00,265,weatherlink.com 1.10,2013-08-31 20:17:00,
2013-08-31 16:32:00,77.6,70.0,29.51,SW,234,0.0,-999.0,76,-99.99,,,0.00,190,weatherlink.com 1.10,2013-08-31 20:32:00,
2013-08-31 16:47:00,77.6,70.0,29.49,SW,230,0.0,-999.0,76,-99.99,,,0.00,243,weatherlink.com 1.10,2013-08-31 20:47:00,
2013-08-31 17:02:00,78.3,70.0,29.49,SW,215,0.0,-999.0,76,-99.99,,,0.00,499,weatherlink.com 1.10,2013-08-31 21:02:00,
2013-08-31 17:17:00,78.7,70.0,29.49,SW,225,0.0,-999.0,75,-99.99,,,0.00,371,weatherlink.com 1.10,2013-08-31 21:17:00,
2013-08-31 17:32:00,77.9,70.0,29.48,SSW,211,0.0,-999.0,76,-99.99,,,0.00,267,weatherlink.com 1.10,2013-08-31 21:32:00,
2013-08-31 17:47:00,78.1,70.0,29.48,SE,146,6.0,-999.0,76,-99.99,,,0.00,141,weatherlink.com 1.10,2013-08-31 21:47:00,
2013-08-31 18:02:00,78.1,70.0,29.47,South,179,0.0,-999.0,75,-99.99,,,0.00,487,weatherlink.com 1.10,2013-08-31 22:02:00,
2013-08-31 18:17:00,78.2,70.0,29.47,SSE,147,0.0,-999.0,75,-99.99,,,0.00,116,weatherlink.com 1.10,2013-08-31 22:17:00,
2013-08-31 18:32:00,78.4,70.0,29.48,SSE,160,1.0,-999.0,75,-99.99,,,0.00,301,weatherlink.com 1.10,2013-08-31 22:32:00,
2013-08-31 18:47:00,78.3,70.0,29.48,SSE,148,0.0,-999.0,75,-99.99,,,0.00,97,weatherlink.com 1.10,2013-08-31 22:47:00,
2013-08-31 19:03:00,78.4,70.0,29.48,SSE,159,0.0,-999.0,76,-99.99,,,0.00,76,weatherlink.com 1.10,2013-08-31 23:03:00,
2013-08-31 19:17:00,78.4,70.0,29.49,SSE,159,0.0,-999.0,76,-99.99,,,0.00,53,weatherlink.com 1.10,2013-08-31 23:17:00,
2013-08-31 19:32:00,78.3,71.0,29.47,SSE,149,0.0,-999.0,77,-99.99,,,0.00,65,weatherlink.com 1.10,2013-08-31 23:32:00,
2013-08-31 19:47:00,78.0,70.0,29.48,SSE,148,0.0,-999.0,77,-99.99,,,0.00,23,weatherlink.com 1.10,2013-08-31 23:47:00,
2013-08-31 20:02:00,77.7,70.0,29.48,SSE,148,0.0,-999.0,77,-99.99,,,0.00,0,weatherlink.com 1.10,2013-09-01 00:02:00,
2013-08-31 20:17:00,77.4,70.0,29.49,SSE,148,0.0,-999.0,78,-99.99,,,0.00,0,weatherlink.com 1.10,2013-09-01 00:17:00,
2013-08-31 20:32:00,77.1,70.0,29.49,SSE,148,0.0,-999.0,79,-99.99,,,0.00,0,weatherlink.com 1.10,2013-09-01 00:32:00,
2013-08-31 20:47:00,76.6,70.0,29.49,SSW,195,0.0,-999.0,80,-99.99,,,0.00,0,weatherlink.com 1.10,2013-09-01 00:47:00,
2013-08-31 21:02:00,76.4,70.0,29.49,SSW,192,0.0,-999.0,81,-99.99,,,0.00,0,weatherlink.com 1.10,2013-09-01 01:02:00,
2013-08-31 21:17:00,76.4,70.0,29.50,SSW,195,0.0,-999.0,81,-99.99,,,0.00,0,weatherlink.com 1.10,2013-09-01 01:17:00,
2013-08-31 21:32:00,76.3,70.0,29.50,SSW,195,0.0,-999.0,82,-99.99,,,0.00,0,weatherlink.com 1.10,2013-09-01 01:32:00,
2013-08-31 21:47:00,76.1,70.0,29.50,SSW,195,0.0,-999.0,82,-99.99,,,0.00,0,weatherlink.com 1.10,2013-09-01 01:47:00,
2013-08-31 22:02:00,75.8,70.0,29.50,SSW,195,0.0,-999.0,82,-99.99,,,0.00,0,weatherlink.com 1.10,2013-09-01 02:02:00,
2013-08-31 22:17:00,75.5,70.0,29.49,SSW,196,0.0,-999.0,83,-99.99,,,0.00,0,weatherlink.com 1.10,2013-09-01 02:17:00,
2013-08-31 22:32:00,75.2,70.0,29.50,SSW,199,0.0,-999.0,83,-99.99,,,0.00,0,weatherlink.com 1.10,2013-09-01 02:32:00,
2013-08-31 22:47:00,74.7,70.0,29.50,SSW,207,0.0,-999.0,84,-99.99,,,0.00,0,weatherlink.com 1.10,2013-09-01 02:47:00,
2013-08-31 23:02:00,74.5,69.0,29.51,SSW,207,0.0,-999.0,84,-99.99,,,0.00,0,weatherlink.com 1.10,2013-09-01 03:02:00,
2013-08-31 23:17:00,74.4,69.0,29.51,SSW,210,0.0,-999.0,84,-99.99,,,0.00,0,weatherlink.com 1.10,2013-09-01 03:17:00,
2013-08-31 23:32:00,74.3,69.0,29.51,SW,214,0.0,-999.0,84,-99.99,,,0.00,0,weatherlink.com 1.10,2013-09-01 03:32:00,
2013-08-31 23:47:00,74.2,70.0,29.52,SW,214,0.0,-999.0,85,-99.99,,,0.00,0,weatherlink.com 1.10,2013-09-01 03:47:00,